createdAt,value
2023-05-17T00:02:21.690Z,97847.34
2023-05-17T00:04:48.762Z,97844.96
2023-05-17T00:07:16.066Z,97846.13
2023-05-17T00:09:43.128Z,97840.11
2023-05-17T00:12:10.485Z,97840.52
2023-05-17T00:14:37.533Z,97837.68
2023-05-17T00:17:05.337Z,97839.71
2023-05-17T00:19:32.389Z,97839.88
2023-05-17T00:21:59.406Z,97841.52
2023-05-17T00:24:26.837Z,97844.66
2023-05-17T00:26:53.907Z,97844.77
2023-05-17T00:29:21.095Z,97840.73
2023-05-17T00:31:48.081Z,97841.67
2023-05-17T00:34:15.073Z,97840.95
2023-05-17T00:36:42.065Z,97837.67
2023-05-17T00:39:09.196Z,97833.04
2023-05-17T00:41:36.262Z,97837.34
2023-05-17T00:44:03.313Z,97842.80
2023-05-17T00:46:30.565Z,97843.48
2023-05-17T00:48:57.762Z,97844.84
2023-05-17T00:51:25.098Z,97852.64
2023-05-17T00:53:52.617Z,97851.11
2023-05-17T00:56:19.892Z,97858.66
2023-05-17T00:58:47.319Z,97867.60
2023-05-17T01:01:14.975Z,97872.87
2023-05-17T01:03:45.350Z,97879.06
2023-05-17T01:06:14.170Z,97884.52
2023-05-17T01:08:42.380Z,97891.30
2023-05-17T01:11:26.120Z,97895.02
2023-05-17T01:14:16.290Z,97893.07
2023-05-17T01:17:02.479Z,97893.83
2023-05-17T01:19:32.725Z,97889.77
2023-05-17T01:22:31.282Z,97889.52
2023-05-17T01:25:11.527Z,97890.92
2023-05-17T01:27:43.146Z,97896.30
2023-05-17T01:30:13.711Z,97895.77
2023-05-17T01:32:42.069Z,97897.58
2023-05-17T01:35:11.782Z,97886.99
2023-05-17T01:37:39.639Z,97886.44
2023-05-17T01:40:08.916Z,97886.92
2023-05-17T01:42:39.896Z,97884.62
2023-05-17T01:45:26.239Z,97885.17
2023-05-17T01:48:29.344Z,97884.98
2023-05-17T01:51:00.107Z,97885.02
2023-05-17T01:53:38.864Z,97887.23
2023-05-17T01:56:16.164Z,97885.37
2023-05-17T01:58:47.997Z,97883.59
2023-05-17T02:01:17.674Z,97885.25
2023-05-17T02:03:49.535Z,97883.93
2023-05-17T02:06:17.064Z,97884.40
2023-05-17T02:08:44.163Z,97888.42
2023-05-17T02:11:11.358Z,97892.71
2023-05-17T02:13:38.476Z,97893.12
2023-05-17T02:16:05.994Z,97898.20
2023-05-17T02:18:35.173Z,97900.21
2023-05-17T02:21:02.588Z,97896.99
2023-05-17T02:23:29.618Z,97898.95
2023-05-17T02:25:56.582Z,97903.48
2023-05-17T02:28:23.766Z,97905.97
2023-05-17T02:30:52.552Z,97909.52
2023-05-17T02:33:20.394Z,97906.47
2023-05-17T02:35:49.630Z,97908.45
2023-05-17T02:38:19.765Z,97908.93
2023-05-17T02:40:46.739Z,97914.41
2023-05-17T02:43:13.804Z,97911.30
2023-05-17T02:45:42.848Z,97909.95
2023-05-17T02:48:09.869Z,97910.40
2023-05-17T02:50:37.492Z,97914.89
2023-05-17T02:53:04.613Z,97915.08
2023-05-17T02:55:31.627Z,97916.69
2023-05-17T02:57:59.038Z,97919.26
2023-05-17T03:00:26.296Z,97918.73
2023-05-17T03:02:56.665Z,97915.20
2023-05-17T03:05:23.840Z,97912.09
2023-05-17T03:07:52.064Z,97911.17
2023-05-17T03:10:19.229Z,97907.55
2023-05-17T03:12:46.782Z,97913.46
2023-05-17T03:15:16.984Z,97917.42
2023-05-17T03:17:44.221Z,97914.21
2023-05-17T03:20:11.818Z,97911.47
2023-05-17T03:22:39.006Z,97910.11
2023-05-17T03:25:06.354Z,97909.39
2023-05-17T03:27:33.829Z,97914.60
2023-05-17T03:30:01.364Z,97912.94
2023-05-17T03:32:29.535Z,97918.49
2023-05-17T03:34:56.777Z,97921.38
2023-05-17T03:37:24.320Z,97924.66
2023-05-17T03:39:51.367Z,97921.93
2023-05-17T03:42:18.445Z,97922.91
2023-05-17T03:44:45.590Z,97922.61
2023-05-17T03:47:13.924Z,97925.03
2023-05-17T03:49:42.425Z,97923.61
2023-05-17T03:52:09.573Z,97923.33
2023-05-17T03:54:36.733Z,97933.66
2023-05-17T03:57:04.649Z,97939.74
2023-05-17T03:59:31.773Z,97946.33
2023-05-17T04:01:58.873Z,97950.16
2023-05-17T04:04:26.274Z,97958.27
2023-05-17T04:06:53.325Z,97961.75
2023-05-17T04:09:20.612Z,97966.62
2023-05-17T04:11:47.665Z,97977.02
2023-05-17T04:14:15.204Z,97982.64
2023-05-17T04:16:42.475Z,97986.66
2023-05-17T04:19:09.973Z,97987.69
2023-05-17T04:21:37.259Z,97989.65
2023-05-17T04:24:04.960Z,97993.42
2023-05-17T04:26:32.616Z,97996.73
2023-05-17T04:28:59.739Z,97996.08
2023-05-17T04:31:27.218Z,98000.76
2023-05-17T04:33:54.533Z,98004.14
2023-05-17T04:36:21.898Z,98009.23
2023-05-17T04:38:49.282Z,98010.52
2023-05-17T04:41:18.059Z,98012.08
2023-05-17T04:43:45.196Z,98008.73
2023-05-17T04:46:18.926Z,98011.17
2023-05-17T04:48:46.705Z,98015.27
2023-05-17T04:51:14.403Z,98016.06
2023-05-17T04:53:41.989Z,98020.44
2023-05-17T04:56:11.881Z,98020.81
2023-05-17T04:58:38.892Z,98024.39
2023-05-17T05:01:06.809Z,98024.13
2023-05-17T05:03:34.874Z,98020.73
2023-05-17T05:06:03.663Z,98019.39
2023-05-17T05:08:33.371Z,98024.15
2023-05-17T05:11:00.788Z,98026.71
2023-05-17T05:13:28.196Z,98030.20
2023-05-17T05:15:55.550Z,98033.17
2023-05-17T05:18:23.499Z,98032.81
2023-05-17T05:20:51.005Z,98031.19
2023-05-17T05:23:18.484Z,98031.25
2023-05-17T05:25:47.104Z,98028.81
2023-05-17T05:28:14.285Z,98029.86
2023-05-17T05:30:41.639Z,98025.48
2023-05-17T05:33:09.098Z,98023.63
2023-05-17T05:35:36.668Z,98022.18
2023-05-17T05:38:03.916Z,98022.87
2023-05-17T05:40:31.842Z,98026.78
2023-05-17T05:42:59.203Z,98026.02
2023-05-17T05:45:26.309Z,98028.34
2023-05-17T05:47:54.880Z,98029.12
2023-05-17T05:50:22.602Z,98027.98
2023-05-17T05:52:50.360Z,98029.96
2023-05-17T05:55:17.442Z,98029.54
2023-05-17T05:57:45.120Z,98030.11
2023-05-17T06:00:13.081Z,98034.23
2023-05-17T06:02:40.335Z,98033.46
2023-05-17T06:05:07.907Z,98033.42
2023-05-17T06:07:35.140Z,98040.33
2023-05-17T06:10:02.174Z,98040.62
2023-05-17T06:12:29.353Z,98045.30
2023-05-17T06:14:56.419Z,98046.85
2023-05-17T06:17:24.457Z,98052.73
2023-05-17T06:19:52.100Z,98049.20
2023-05-17T06:22:19.218Z,98046.80
2023-05-17T06:24:46.560Z,98048.16
2023-05-17T06:27:13.724Z,98045.83
2023-05-17T06:29:41.312Z,98050.58
2023-05-17T06:32:08.458Z,98048.24
2023-05-17T06:34:35.493Z,98049.11
2023-05-17T06:37:03.145Z,98049.08
2023-05-17T06:39:30.156Z,98047.92
2023-05-17T06:41:57.361Z,98045.43
2023-05-17T06:44:24.541Z,98051.99
2023-05-17T06:46:51.584Z,98053.81
2023-05-17T06:49:18.694Z,98055.66
2023-05-17T06:51:46.028Z,98053.42
2023-05-17T06:54:13.095Z,98052.13
2023-05-17T06:56:40.034Z,98051.65
2023-05-17T06:59:07.137Z,98049.80
2023-05-17T07:01:34.270Z,98047.88
2023-05-17T07:04:01.544Z,98045.55
2023-05-17T07:06:28.740Z,98047.37
2023-05-17T07:08:57.499Z,98046.58
2023-05-17T07:11:24.650Z,98040.36
2023-05-17T07:13:54.211Z,98034.48
2023-05-17T07:16:21.596Z,98031.15
2023-05-17T07:18:48.702Z,98033.55
2023-05-17T07:21:15.734Z,98038.37
2023-05-17T07:23:42.834Z,98034.66
2023-05-17T07:26:09.828Z,98038.63
2023-05-17T07:28:36.914Z,98039.02
2023-05-17T07:31:04.083Z,98039.42
2023-05-17T07:33:31.259Z,98039.10
2023-05-17T07:35:58.386Z,98035.08
2023-05-17T07:38:25.676Z,98031.95
2023-05-17T07:40:52.658Z,98031.77
2023-05-17T07:43:19.742Z,98032.07
2023-05-17T07:45:47.156Z,98026.27
2023-05-17T07:48:14.746Z,98025.35
2023-05-17T07:50:43.424Z,98020.73
2023-05-17T07:53:10.575Z,98020.89
2023-05-17T07:55:37.893Z,98018.77
2023-05-17T07:58:05.083Z,98025.66
2023-05-17T08:00:32.967Z,98027.30
2023-05-17T08:03:01.165Z,98028.09
2023-05-17T08:05:28.481Z,98025.63
2023-05-17T08:07:59.673Z,98018.39
2023-05-17T08:10:27.379Z,98018.21
2023-05-17T08:12:54.924Z,98020.01
2023-05-17T08:15:22.193Z,98022.26
2023-05-17T08:17:50.347Z,98022.63
2023-05-17T08:20:17.414Z,98023.70
2023-05-17T08:22:44.352Z,98026.14
2023-05-17T08:25:11.577Z,98027.39
2023-05-17T08:27:39.134Z,98026.45
2023-05-17T08:30:09.214Z,98026.11
2023-05-17T08:32:39.006Z,98029.70
2023-05-17T08:35:06.621Z,98022.00
2023-05-17T08:37:33.677Z,98024.21
2023-05-17T08:40:01.032Z,98022.56
2023-05-17T08:42:29.616Z,98022.23
2023-05-17T08:44:56.704Z,98026.14
2023-05-17T08:47:25.762Z,98024.19
2023-05-17T08:49:59.892Z,98022.30
2023-05-17T08:52:32.483Z,98022.36
2023-05-17T08:55:01.918Z,98029.02
2023-05-17T08:57:30.960Z,98029.08
2023-05-17T09:00:06.313Z,98031.64
2023-05-17T09:02:33.494Z,98034.41
2023-05-17T09:05:01.624Z,98037.62
2023-05-17T09:07:28.670Z,98034.10
2023-05-17T09:09:56.045Z,98035.73
2023-05-17T09:12:25.687Z,98038.89
2023-05-17T09:14:52.876Z,98035.08
2023-05-17T09:17:21.100Z,98036.76
2023-05-17T09:19:49.825Z,98040.41
2023-05-17T09:22:20.155Z,98048.70
2023-05-17T09:24:50.200Z,98040.67
2023-05-17T09:27:18.379Z,98036.84
2023-05-17T09:29:45.975Z,98032.67
2023-05-17T09:32:17.802Z,98033.79
2023-05-17T09:34:49.566Z,98031.73
2023-05-17T09:37:19.042Z,98033.55
2023-05-17T09:39:47.790Z,98034.42
2023-05-17T09:42:16.215Z,98030.19
2023-05-17T09:44:57.134Z,98035.16
2023-05-17T09:47:29.643Z,98039.59
2023-05-17T09:50:08.251Z,98040.80
2023-05-17T09:52:36.519Z,98041.63
2023-05-17T09:55:03.629Z,98043.30
2023-05-17T09:57:37.874Z,98041.69
2023-05-17T10:00:11.480Z,98048.67
2023-05-17T10:02:42.168Z,98048.42
2023-05-17T10:05:12.114Z,98048.52
2023-05-17T10:07:41.240Z,98049.52
2023-05-17T10:10:09.405Z,98047.39
2023-05-17T10:12:40.129Z,98052.73
2023-05-17T10:15:08.373Z,98058.37
2023-05-17T10:17:36.736Z,98054.19
2023-05-17T10:20:06.365Z,98050.83
2023-05-17T10:22:33.950Z,98057.86
2023-05-17T10:25:01.197Z,98059.59
2023-05-17T10:27:29.843Z,98064.04
2023-05-17T10:29:57.811Z,98069.52
2023-05-17T10:32:28.368Z,98066.92
2023-05-17T10:35:09.571Z,98070.97
2023-05-17T10:37:39.961Z,98073.36
2023-05-17T10:40:14.611Z,98075.46
2023-05-17T10:42:53.234Z,98076.78
2023-05-17T10:45:22.231Z,98075.12
2023-05-17T10:47:52.969Z,98082.40
2023-05-17T10:50:25.601Z,98080.98
2023-05-17T10:52:55.323Z,98082.02
2023-05-17T10:55:24.546Z,98083.98
2023-05-17T10:58:09.345Z,98083.84
2023-05-17T11:00:41.014Z,98088.85
2023-05-17T11:03:13.492Z,98093.87
2023-05-17T11:06:06.201Z,98096.05
2023-05-17T11:08:33.500Z,98101.39
2023-05-17T11:11:11.330Z,98106.77
2023-05-17T11:13:51.962Z,98115.94
2023-05-17T11:16:23.066Z,98123.17
2023-05-17T11:18:52.170Z,98123.52
2023-05-17T11:21:21.383Z,98131.48
2023-05-17T11:23:54.945Z,98137.73
2023-05-17T11:26:27.749Z,98147.67
2023-05-17T11:29:07.127Z,98152.55
2023-05-17T11:31:37.172Z,98160.30
2023-05-17T11:34:04.773Z,98167.13
2023-05-17T11:36:47.896Z,98171.23
2023-05-17T11:39:20.557Z,98174.17
2023-05-17T11:41:55.717Z,98176.91
2023-05-17T11:44:27.511Z,98178.94
2023-05-17T11:47:06.523Z,98182.83
2023-05-17T11:49:37.302Z,98188.46
2023-05-17T11:52:05.498Z,98185.70
2023-05-17T11:54:32.955Z,98188.87
2023-05-17T11:57:02.348Z,98177.84
2023-05-17T11:59:29.303Z,98188.05
2023-05-17T12:01:56.255Z,98188.00
2023-05-17T12:04:27.228Z,98187.36
2023-05-17T12:06:55.810Z,98193.38
2023-05-17T12:09:23.828Z,98194.92
2023-05-17T12:11:50.873Z,98194.77
2023-05-17T12:14:19.648Z,98201.18
2023-05-17T12:16:52.104Z,98198.20
2023-05-17T12:19:20.792Z,98201.17
2023-05-17T12:21:48.577Z,98205.60
2023-05-17T12:24:16.097Z,98200.52
2023-05-17T12:26:47.643Z,98194.77
2023-05-17T12:29:22.398Z,98187.16
2023-05-17T12:31:52.477Z,98180.64
2023-05-17T12:34:20.126Z,98172.91
2023-05-17T12:36:47.844Z,98168.06
2023-05-17T12:39:17.480Z,98160.52
2023-05-17T12:41:44.659Z,98159.83
2023-05-17T12:44:16.231Z,98154.43
2023-05-17T12:46:44.676Z,98156.64
2023-05-17T12:49:12.072Z,98157.02
2023-05-17T12:51:46.495Z,98163.08
2023-05-17T12:54:29.014Z,98165.08
2023-05-17T12:56:56.798Z,98162.38
2023-05-17T12:59:28.419Z,98156.29
2023-05-17T13:01:57.075Z,98151.58
2023-05-17T13:04:33.391Z,98141.59
2023-05-17T13:07:03.326Z,98137.02
2023-05-17T13:09:32.922Z,98137.73
2023-05-17T13:12:09.366Z,98141.07
2023-05-17T13:14:47.395Z,98150.20
2023-05-17T13:17:35.293Z,98146.36
2023-05-17T13:20:03.524Z,98145.29
2023-05-17T13:22:31.149Z,98145.27
2023-05-17T13:24:58.426Z,98149.66
2023-05-17T13:27:25.660Z,98150.20
2023-05-17T13:29:52.814Z,98144.30
2023-05-17T13:32:20.716Z,98144.34
2023-05-17T13:34:48.075Z,98150.45
2023-05-17T13:37:15.661Z,98156.33
2023-05-17T13:39:43.286Z,98158.84
2023-05-17T13:42:12.001Z,98158.77
2023-05-17T13:44:39.190Z,98158.89
2023-05-17T13:47:06.994Z,98160.84
2023-05-17T13:49:34.137Z,98162.58
2023-05-17T13:52:01.588Z,98168.27
2023-05-17T13:54:28.660Z,98171.34
2023-05-17T13:56:56.881Z,98168.63
2023-05-17T13:59:23.971Z,98173.58
2023-05-17T14:01:51.025Z,98173.27
2023-05-17T14:04:19.552Z,98179.92
2023-05-17T14:06:48.662Z,98182.23
2023-05-17T14:09:16.239Z,98188.17
2023-05-17T14:11:43.580Z,98191.16
2023-05-17T14:14:10.661Z,98198.57
2023-05-17T14:16:38.381Z,98199.19
2023-05-17T14:19:05.409Z,98205.15
2023-05-17T14:21:32.469Z,98207.52
2023-05-17T14:23:59.404Z,98215.45
2023-05-17T14:26:26.635Z,98220.83
2023-05-17T14:28:53.779Z,98222.52
2023-05-17T14:31:20.776Z,98226.69
2023-05-17T14:33:47.827Z,98229.96
2023-05-17T14:36:15.133Z,98236.16
2023-05-17T14:38:42.164Z,98228.79
2023-05-17T14:41:09.052Z,98228.95
2023-05-17T14:43:36.128Z,98225.91
2023-05-17T14:46:03.716Z,98223.95
2023-05-17T14:48:31.264Z,98225.40
2023-05-17T14:50:58.318Z,98226.11
2023-05-17T14:53:28.871Z,98226.15
2023-05-17T14:55:59.217Z,98226.22
2023-05-17T14:58:27.952Z,98230.40
2023-05-17T15:01:02.471Z,98235.73
2023-05-17T15:03:32.921Z,98234.98
2023-05-17T15:06:01.717Z,98237.05
2023-05-17T15:08:30.353Z,98237.93
2023-05-17T15:10:58.183Z,98237.45
2023-05-17T15:13:25.904Z,98241.73
2023-05-17T15:15:53.508Z,98241.01
2023-05-17T15:18:20.873Z,98237.96
2023-05-17T15:20:48.048Z,98236.60
2023-05-17T15:23:15.602Z,98235.45
2023-05-17T15:25:42.582Z,98233.79
2023-05-17T15:28:09.694Z,98233.12
2023-05-17T15:30:36.838Z,98230.30
2023-05-17T15:33:04.244Z,98230.41
2023-05-17T15:35:31.718Z,98233.66
2023-05-17T15:37:59.380Z,98231.60
2023-05-17T15:40:27.097Z,98229.08
2023-05-17T15:42:54.147Z,98231.02
2023-05-17T15:45:21.442Z,98234.86
2023-05-17T15:47:48.938Z,98236.16
2023-05-17T15:50:16.239Z,98233.95
2023-05-17T15:52:43.344Z,98237.30
2023-05-17T15:55:10.585Z,98234.59
2023-05-17T15:57:37.587Z,98233.55
2023-05-17T16:00:05.332Z,98236.27
2023-05-17T16:02:32.212Z,98236.08
2023-05-17T16:05:01.815Z,98233.14
2023-05-17T16:07:30.796Z,98233.33
2023-05-17T16:09:57.705Z,98233.34
2023-05-17T16:12:24.796Z,98233.12
2023-05-17T16:14:51.972Z,98239.23
2023-05-17T16:17:19.167Z,98234.60
2023-05-17T16:19:46.378Z,98236.83
2023-05-17T16:22:13.732Z,98236.91
2023-05-17T16:24:41.607Z,98232.36
2023-05-17T16:27:08.555Z,98236.77
2023-05-17T16:29:39.286Z,98236.36
2023-05-17T16:32:07.582Z,98235.38
2023-05-17T16:34:35.287Z,98229.27
2023-05-17T16:37:04.152Z,98226.66
2023-05-17T16:39:32.437Z,98227.95
2023-05-17T16:41:59.791Z,98229.04
2023-05-17T16:44:27.055Z,98225.09
2023-05-17T16:46:54.312Z,98229.02
2023-05-17T16:49:22.013Z,98227.38
2023-05-17T16:51:51.498Z,98231.23
2023-05-17T16:54:18.630Z,98230.45
2023-05-17T16:56:45.982Z,98234.16
2023-05-17T16:59:13.292Z,98236.53
2023-05-17T17:01:40.198Z,98235.30
2023-05-17T17:04:07.231Z,98236.92
2023-05-17T17:06:34.775Z,98239.55
2023-05-17T17:09:06.289Z,98235.26
2023-05-17T17:11:35.462Z,98229.49
2023-05-17T17:14:02.865Z,98222.36
2023-05-17T17:16:31.213Z,98216.92
2023-05-17T17:18:59.176Z,98212.75
2023-05-17T17:21:26.285Z,98216.35
2023-05-17T17:23:53.296Z,98223.98
2023-05-17T17:26:21.568Z,98227.38
2023-05-17T17:28:48.825Z,98229.89
2023-05-17T17:31:17.825Z,98228.60
2023-05-17T17:33:44.976Z,98232.05
2023-05-17T17:36:12.246Z,98233.45
2023-05-17T17:38:39.312Z,98239.08
2023-05-17T17:41:06.318Z,98247.92
2023-05-17T17:43:33.439Z,98251.11
2023-05-17T17:46:00.667Z,98251.83
2023-05-17T17:48:27.926Z,98258.01
2023-05-17T17:50:55.385Z,98261.77
2023-05-17T17:53:22.796Z,98266.51
2023-05-17T17:55:50.071Z,98279.11
2023-05-17T17:58:17.265Z,98288.34
2023-05-17T18:00:44.488Z,98296.83
2023-05-17T18:03:13.396Z,98302.33
2023-05-17T18:05:40.828Z,98302.20
2023-05-17T18:08:07.869Z,98301.95
2023-05-17T18:10:34.916Z,98304.41
2023-05-17T18:13:02.148Z,98305.70
2023-05-17T18:15:29.301Z,98312.40
2023-05-17T18:17:56.927Z,98315.90
2023-05-17T18:20:25.981Z,98320.13
2023-05-17T18:22:53.539Z,98318.06
2023-05-17T18:25:20.943Z,98319.81
2023-05-17T18:27:48.250Z,98321.68
2023-05-17T18:30:15.200Z,98322.90
2023-05-17T18:32:42.493Z,98318.95
2023-05-17T18:35:10.130Z,98319.85
2023-05-17T18:37:37.279Z,98329.23
2023-05-17T18:40:05.229Z,98327.59
2023-05-17T18:42:32.414Z,98335.84
2023-05-17T18:45:00.506Z,98333.25
2023-05-17T18:47:27.756Z,98335.73
2023-05-17T18:49:55.070Z,98338.72
2023-05-17T18:52:22.171Z,98344.30
2023-05-17T18:54:49.926Z,98348.30
2023-05-17T18:57:17.263Z,98352.12
2023-05-17T18:59:44.540Z,98353.89
2023-05-17T19:02:11.708Z,98357.61
2023-05-17T19:04:38.990Z,98356.45
2023-05-17T19:07:06.313Z,98357.64
2023-05-17T19:09:34.080Z,98351.62
2023-05-17T19:12:01.417Z,98350.77
2023-05-17T19:14:28.606Z,98347.62
2023-05-17T19:16:56.422Z,98351.34
2023-05-17T19:19:25.358Z,98357.92
2023-05-17T19:21:52.480Z,98348.34
2023-05-17T19:24:19.474Z,98336.91
2023-05-17T19:26:46.476Z,98329.98
2023-05-17T19:29:13.662Z,98336.02
2023-05-17T19:31:40.750Z,98340.46
2023-05-17T19:34:07.857Z,98337.17
2023-05-17T19:36:35.151Z,98334.52
2023-05-17T19:39:02.409Z,98330.23
2023-05-17T19:41:29.671Z,98323.59
2023-05-17T19:43:57.029Z,98321.13
2023-05-17T19:46:24.209Z,98320.93
2023-05-17T19:48:52.243Z,98318.33
2023-05-17T19:51:19.360Z,98316.46
2023-05-17T19:53:53.032Z,98321.61
2023-05-17T19:56:23.711Z,98315.70
2023-05-17T19:58:51.948Z,98318.25
2023-05-17T20:01:20.975Z,98322.41
2023-05-17T20:03:48.582Z,98321.06
2023-05-17T20:06:16.058Z,98326.05
2023-05-17T20:08:43.112Z,98327.89
2023-05-17T20:11:10.782Z,98327.73
2023-05-17T20:13:39.665Z,98334.86
2023-05-17T20:16:12.181Z,98336.45
2023-05-17T20:18:42.546Z,98339.66
2023-05-17T20:21:11.896Z,98339.39
2023-05-17T20:23:39.079Z,98345.18
2023-05-17T20:26:06.125Z,98351.33
2023-05-17T20:28:33.055Z,98356.50
2023-05-17T20:31:00.506Z,98358.69
2023-05-17T20:33:27.771Z,98363.38
2023-05-17T20:35:55.041Z,98364.04
2023-05-17T20:38:22.054Z,98366.02
2023-05-17T20:40:51.397Z,98369.77
2023-05-17T20:43:19.286Z,98370.63
2023-05-17T20:45:46.517Z,98373.34
2023-05-17T20:48:13.453Z,98373.48
2023-05-17T20:50:41.090Z,98383.42
2023-05-17T20:53:09.940Z,98380.35
2023-05-17T20:55:37.076Z,98386.73
2023-05-17T20:58:04.268Z,98390.40
2023-05-17T21:00:31.892Z,98395.33
2023-05-17T21:02:59.584Z,98399.48
2023-05-17T21:05:27.954Z,98407.55
2023-05-17T21:07:56.031Z,98411.55
2023-05-17T21:10:23.192Z,98416.71
2023-05-17T21:12:50.364Z,98417.03
2023-05-17T21:15:17.606Z,98420.73
2023-05-17T21:17:45.231Z,98427.13
2023-05-17T21:20:13.061Z,98425.52
2023-05-17T21:22:40.190Z,98431.88
2023-05-17T21:25:08.511Z,98427.96
2023-05-17T21:27:35.499Z,98430.23
2023-05-17T21:30:02.644Z,98429.65
2023-05-17T21:32:29.974Z,98434.05
2023-05-17T21:34:58.951Z,98438.17
2023-05-17T21:37:25.986Z,98440.86
2023-05-17T21:39:52.961Z,98443.14
2023-05-17T21:42:21.014Z,98446.29
2023-05-17T21:44:48.220Z,98449.48
2023-05-17T21:47:15.541Z,98449.02
2023-05-17T21:49:42.455Z,98445.41
2023-05-17T21:52:09.438Z,98448.64
2023-05-17T21:54:36.562Z,98447.77
2023-05-17T21:57:03.953Z,98455.41
2023-05-17T21:59:31.213Z,98458.65
2023-05-17T22:01:58.321Z,98459.75
2023-05-17T22:04:25.931Z,98458.90
2023-05-17T22:06:56.560Z,98459.38
2023-05-17T22:09:23.672Z,98455.84
2023-05-17T22:11:51.957Z,98456.79
2023-05-17T22:14:19.876Z,98460.16
2023-05-17T22:16:47.007Z,98461.98
2023-05-17T22:19:14.551Z,98463.10
2023-05-17T22:21:41.856Z,98463.48
2023-05-17T22:24:08.978Z,98460.39
2023-05-17T22:26:37.078Z,98461.30
2023-05-17T22:29:04.185Z,98465.05
2023-05-17T22:31:33.895Z,98463.20
2023-05-17T22:34:01.071Z,98461.71
2023-05-17T22:36:31.565Z,98466.16
2023-05-17T22:38:58.895Z,98466.30
2023-05-17T22:41:26.463Z,98465.91
2023-05-17T22:43:53.476Z,98468.52
2023-05-17T22:46:20.553Z,98470.13
2023-05-17T22:48:49.568Z,98470.46
2023-05-17T22:51:18.002Z,98469.55
2023-05-17T22:53:45.249Z,98472.27
2023-05-17T22:56:12.231Z,98469.90
2023-05-17T22:58:39.327Z,98476.32
2023-05-17T23:01:06.323Z,98472.27
2023-05-17T23:03:33.512Z,98475.71
2023-05-17T23:06:04.645Z,98472.54
2023-05-17T23:08:32.115Z,98466.36
2023-05-17T23:10:59.293Z,98469.45
2023-05-17T23:13:26.440Z,98470.42
2023-05-17T23:15:53.510Z,98467.13
2023-05-17T23:18:20.789Z,98472.49
2023-05-17T23:20:48.485Z,98469.36
2023-05-17T23:23:15.782Z,98472.73
2023-05-17T23:25:44.372Z,98471.98
2023-05-17T23:28:13.889Z,98475.35
2023-05-17T23:30:41.153Z,98473.59
2023-05-17T23:33:08.595Z,98473.02
2023-05-17T23:35:35.962Z,98473.64
2023-05-17T23:38:03.681Z,98478.48
2023-05-17T23:40:30.620Z,98476.16
2023-05-17T23:42:57.751Z,98475.30
2023-05-17T23:45:24.863Z,98474.73
2023-05-17T23:47:52.297Z,98470.55
2023-05-17T23:50:19.324Z,98474.86
2023-05-17T23:52:46.974Z,98472.11
2023-05-17T23:55:14.141Z,98467.84
2023-05-17T23:57:41.902Z,98466.23
